createdAt,value
2023-05-25T00:01:02.556Z,30.13
2023-05-25T00:04:07.814Z,29.11
2023-05-25T00:07:11.769Z,28.58
2023-05-25T00:10:16.306Z,28.44
2023-05-25T00:13:20.879Z,27.83
2023-05-25T00:16:25.591Z,27.42
2023-05-25T00:19:35.822Z,27.14
2023-05-25T00:22:48.253Z,26.90
2023-05-25T00:26:02.256Z,27.97
2023-05-25T00:29:11.259Z,27.23
2023-05-25T00:32:20.472Z,26.57
2023-05-25T00:35:28.644Z,26.46
2023-05-25T00:38:36.783Z,28.42
2023-05-25T00:41:55.773Z,29.51
2023-05-25T00:45:09.329Z,30.30
2023-05-25T00:48:24.408Z,30.94
2023-05-25T00:51:37.466Z,30.86
2023-05-25T00:54:46.695Z,31.02
2023-05-25T00:58:03.988Z,31.25
2023-05-25T01:01:20.275Z,31.21
2023-05-25T01:04:37.034Z,31.38
2023-05-25T01:07:47.909Z,31.74
2023-05-25T01:11:00.749Z,31.71
2023-05-25T01:14:05.829Z,32.21
2023-05-25T01:17:17.069Z,32.19
2023-05-25T01:20:24.490Z,31.84
2023-05-25T01:23:36.331Z,32.71
2023-05-25T01:27:07.348Z,32.36
2023-05-25T01:30:15.212Z,31.78
2023-05-25T01:33:25.502Z,32.54
2023-05-25T01:36:32.451Z,32.39
2023-05-25T01:39:39.329Z,32.80
2023-05-25T01:42:47.563Z,33.17
2023-05-25T01:45:57.737Z,32.96
2023-05-25T01:49:31.327Z,32.20
2023-05-25T01:52:52.094Z,32.62
2023-05-25T01:56:11.771Z,32.58
2023-05-25T01:59:30.107Z,33.08
2023-05-25T02:02:34.772Z,32.53
2023-05-25T02:05:39.906Z,31.56
2023-05-25T02:08:46.573Z,31.80
2023-05-25T02:11:53.861Z,31.50
2023-05-25T02:14:59.212Z,30.74
2023-05-25T02:18:03.950Z,30.53
2023-05-25T02:21:08.826Z,30.69
2023-05-25T02:24:12.968Z,30.67
2023-05-25T02:27:16.954Z,30.80
2023-05-25T02:30:24.250Z,30.60
2023-05-25T02:33:49.041Z,30.67
2023-05-25T02:36:54.108Z,30.41
2023-05-25T02:40:00.698Z,30.32
2023-05-25T02:43:23.903Z,30.14
2023-05-25T02:48:20.680Z,30.01
2023-05-25T03:05:10.139Z,29.40
2023-05-25T03:08:17.006Z,29.63
2023-05-25T03:11:41.811Z,29.66
2023-05-25T03:14:58.490Z,29.54
2023-05-25T03:18:10.560Z,29.08
2023-05-25T03:21:18.501Z,29.24
2023-05-25T03:24:23.352Z,29.02
2023-05-25T03:27:32.540Z,28.84
2023-05-25T03:30:45.491Z,28.69
2023-05-25T03:34:03.427Z,28.62
2023-05-25T03:37:19.839Z,28.41
2023-05-25T03:40:48.724Z,28.34
2023-05-25T03:47:53.821Z,27.94
2023-05-25T03:51:04.873Z,28.65
2023-05-25T03:54:08.824Z,28.56
2023-05-25T03:57:13.392Z,28.68
2023-05-25T04:00:17.653Z,28.69
2023-05-25T04:03:24.794Z,28.40
2023-05-25T04:06:30.829Z,28.51
2023-05-25T04:09:34.974Z,28.07
2023-05-25T04:12:39.399Z,27.81
2023-05-25T04:15:43.475Z,27.85
2023-05-25T04:18:58.333Z,27.64
2023-05-25T04:22:02.838Z,27.35
2023-05-25T04:25:09.280Z,27.40
2023-05-25T04:28:14.643Z,27.49
2023-05-25T04:31:31.175Z,27.57
2023-05-25T04:35:04.577Z,27.64
2023-05-25T04:38:26.627Z,28.05
2023-05-25T04:41:30.825Z,28.23
2023-05-25T04:44:40.940Z,28.47
2023-05-25T04:47:46.638Z,28.92
2023-05-25T04:50:52.075Z,28.81
2023-05-25T04:53:57.318Z,28.57
2023-05-25T04:57:02.549Z,27.97
2023-05-25T05:00:20.313Z,28.12
2023-05-25T05:03:34.428Z,27.92
2023-05-25T05:06:40.816Z,27.99
2023-05-25T05:09:48.822Z,28.16
2023-05-25T05:12:54.650Z,28.28
2023-05-25T05:15:58.670Z,28.06
2023-05-25T05:19:03.431Z,28.29
2023-05-25T05:22:10.577Z,28.27
2023-05-25T05:25:15.551Z,28.47
2023-05-25T05:28:19.980Z,28.45
2023-05-25T05:31:24.995Z,28.52
2023-05-25T05:34:29.161Z,28.71
2023-05-25T05:37:33.707Z,28.51
2023-05-25T05:40:38.219Z,28.27
2023-05-25T05:43:44.649Z,28.20
2023-05-25T05:46:49.929Z,28.16
2023-05-25T05:49:54.699Z,28.24
2023-05-25T05:53:01.301Z,28.24
2023-05-25T05:56:05.586Z,28.27
2023-05-25T05:59:12.910Z,28.43
2023-05-25T06:02:18.031Z,28.49
2023-05-25T06:05:24.421Z,28.21
2023-05-25T06:08:29.830Z,28.22
2023-05-25T06:11:40.817Z,27.91
2023-05-25T06:14:49.943Z,27.89
2023-05-25T06:17:54.389Z,27.82
2023-05-25T06:20:58.410Z,27.64
2023-05-25T06:24:02.771Z,27.75
2023-05-25T06:27:07.094Z,27.74
2023-05-25T06:30:11.455Z,27.78
2023-05-25T06:33:15.694Z,27.79
2023-05-25T06:36:20.697Z,27.71
2023-05-25T06:39:27.877Z,27.58
2023-05-25T06:42:32.084Z,27.43
2023-05-25T06:45:39.522Z,27.27
2023-05-25T06:48:43.593Z,27.10
2023-05-25T06:51:47.727Z,26.96
2023-05-25T06:54:51.907Z,26.99
2023-05-25T06:57:55.800Z,26.88
2023-05-25T07:01:01.910Z,26.87
2023-05-25T07:04:08.019Z,26.81
2023-05-25T07:07:23.975Z,26.43
2023-05-25T07:10:28.515Z,26.59
2023-05-25T07:13:32.614Z,26.67
2023-05-25T07:16:36.558Z,26.77
2023-05-25T07:19:40.541Z,26.58
2023-05-25T07:22:44.569Z,26.53
2023-05-25T07:25:48.563Z,26.49
2023-05-25T07:28:53.179Z,26.40
2023-05-25T07:31:57.736Z,26.43
2023-05-25T07:35:02.215Z,26.28
2023-05-25T07:38:07.652Z,26.30
2023-05-25T07:41:12.807Z,26.36
2023-05-25T07:44:16.848Z,26.30
2023-05-25T07:47:20.849Z,26.29
2023-05-25T07:50:24.950Z,26.12
2023-05-25T07:53:28.996Z,26.30
2023-05-25T07:56:33.402Z,26.58
2023-05-25T07:59:37.555Z,26.87
2023-05-25T08:02:42.644Z,26.77
2023-05-25T08:05:46.386Z,26.66
2023-05-25T08:08:51.343Z,26.54
2023-05-25T08:12:18.604Z,26.48
2023-05-25T08:15:23.502Z,26.29
2023-05-25T08:18:27.699Z,26.06
2023-05-25T08:21:35.544Z,25.95
2023-05-25T08:24:39.544Z,25.74
2023-05-25T08:27:43.818Z,25.51
2023-05-25T08:30:48.256Z,25.44
2023-05-25T08:33:57.919Z,25.46
2023-05-25T08:37:02.286Z,25.43
2023-05-25T08:40:08.874Z,25.32
2023-05-25T08:43:13.019Z,25.22
2023-05-25T08:46:34.133Z,25.24
2023-05-25T08:49:42.499Z,25.02
2023-05-25T08:52:47.903Z,25.14
2023-05-25T08:55:55.317Z,25.27
2023-05-25T08:59:04.183Z,25.26
2023-05-25T09:02:40.314Z,25.10
2023-05-25T09:05:45.012Z,25.10
2023-05-25T09:08:49.263Z,25.29
2023-05-25T09:12:40.440Z,25.22
2023-05-25T09:15:45.777Z,25.09
2023-05-25T09:18:57.881Z,25.07
2023-05-25T09:22:14.776Z,24.92
2023-05-25T09:25:24.021Z,24.87
2023-05-25T09:28:33.148Z,24.81
2023-05-25T09:32:09.104Z,24.85
2023-05-25T09:35:11.005Z,24.60
2023-05-25T09:38:17.644Z,24.53
2023-05-25T09:41:31.129Z,24.38
2023-05-25T09:44:35.131Z,23.89
2023-05-25T09:47:46.483Z,24.14
2023-05-25T09:50:50.639Z,24.07
2023-05-25T09:53:57.982Z,23.85
2023-05-25T09:57:06.183Z,23.74
2023-05-25T10:00:24.777Z,23.37
2023-05-25T10:03:29.364Z,23.11
2023-05-25T10:06:36.399Z,23.34
2023-05-25T10:09:49.143Z,23.17
2023-05-25T10:12:54.605Z,22.93
2023-05-25T10:16:03.755Z,22.79
2023-05-25T10:19:15.678Z,22.90
2023-05-25T10:22:28.093Z,22.75
2023-05-25T10:25:45.257Z,22.57
2023-05-25T10:28:52.710Z,22.52
2023-05-25T10:32:03.579Z,22.31
2023-05-25T10:35:11.174Z,22.38
2023-05-25T10:38:16.042Z,22.16
2023-05-25T10:41:22.396Z,22.17
2023-05-25T10:44:29.211Z,22.09
2023-05-25T10:47:45.220Z,21.83
2023-05-25T10:50:52.733Z,21.58
2023-05-25T10:54:04.749Z,21.56
2023-05-25T10:57:21.099Z,21.54
2023-05-25T11:00:25.680Z,21.43
2023-05-25T11:03:45.712Z,21.40
2023-05-25T11:07:17.506Z,21.03
2023-05-25T11:10:43.156Z,21.39
2023-05-25T11:13:51.723Z,21.35
2023-05-25T11:17:17.455Z,21.36
2023-05-25T11:20:29.213Z,21.30
2023-05-25T11:23:33.401Z,21.48
2023-05-25T11:26:40.369Z,21.58
2023-05-25T11:29:47.545Z,21.73
2023-05-25T11:32:51.834Z,21.91
2023-05-25T11:36:00.163Z,21.96
2023-05-25T11:39:17.184Z,21.96
2023-05-25T11:42:26.039Z,21.96
2023-05-25T11:45:33.243Z,21.86
2023-05-25T11:48:40.251Z,21.84
2023-05-25T11:51:44.779Z,21.87
2023-05-25T11:54:56.905Z,21.80
2023-05-25T11:58:03.375Z,22.11
2023-05-25T12:01:28.404Z,21.99
2023-05-25T12:04:35.731Z,21.90
2023-05-25T12:07:50.553Z,21.79
2023-05-25T12:10:54.643Z,21.78
2023-05-25T12:14:02.103Z,21.73
2023-05-25T12:17:07.406Z,21.48
2023-05-25T12:20:16.275Z,21.66
2023-05-25T12:23:20.628Z,21.48
2023-05-25T12:26:27.411Z,20.62
2023-05-25T12:29:39.223Z,21.30
2023-05-25T12:33:03.776Z,21.30
2023-05-25T12:36:15.571Z,21.08
2023-05-25T12:39:35.472Z,21.17
2023-05-25T12:42:58.204Z,21.11
2023-05-25T12:46:07.593Z,21.20
2023-05-25T12:49:39.520Z,20.95
2023-05-25T12:52:49.353Z,21.00
2023-05-25T12:56:04.347Z,21.05
2023-05-25T12:59:19.393Z,20.90
2023-05-25T13:02:24.796Z,21.04
2023-05-25T13:05:37.953Z,20.89
2023-05-25T13:08:54.086Z,21.15
2023-05-25T13:12:15.421Z,21.07
2023-05-25T13:15:30.390Z,21.09
2023-05-25T13:18:36.575Z,20.73
2023-05-25T13:21:46.899Z,20.74
2023-05-25T13:24:56.219Z,20.65
2023-05-25T13:28:07.192Z,20.48
2023-05-25T13:31:19.224Z,20.62
2023-05-25T13:34:24.777Z,20.22
2023-05-25T13:37:31.173Z,20.35
2023-05-25T13:40:35.378Z,20.50
2023-05-25T13:43:39.518Z,20.43
2023-05-25T13:46:43.742Z,20.22
2023-05-25T13:49:48.578Z,19.98
2023-05-25T13:52:52.638Z,20.53
2023-05-25T13:55:56.683Z,20.10
2023-05-25T13:59:00.597Z,20.26
2023-05-25T14:02:04.673Z,20.34
2023-05-25T14:05:08.961Z,20.34
2023-05-25T14:08:13.618Z,20.36
2023-05-25T14:11:21.862Z,20.23
2023-05-25T14:14:32.676Z,20.07
2023-05-25T14:17:37.393Z,19.92
2023-05-25T14:20:43.512Z,19.99
2023-05-25T14:23:47.683Z,20.05
2023-05-25T14:26:51.662Z,20.05
2023-05-25T14:29:55.713Z,19.84
2023-05-25T14:38:13.662Z,19.03
2023-05-25T14:46:40.048Z,19.46
2023-05-25T14:49:44.605Z,19.40
2023-05-25T14:52:48.613Z,19.57
2023-05-25T14:55:52.854Z,19.48
2023-05-25T14:58:56.811Z,19.37
2023-05-25T15:02:00.895Z,19.37
2023-05-25T15:05:05.177Z,18.94
2023-05-25T15:08:11.352Z,19.14
2023-05-25T15:11:19.773Z,19.58
2023-05-25T15:14:23.471Z,19.76
2023-05-25T15:17:29.952Z,19.80
2023-05-25T15:20:34.182Z,19.85
2023-05-25T15:23:38.290Z,19.47
2023-05-25T15:26:42.071Z,19.37
2023-05-25T15:29:49.369Z,19.34
2023-05-25T15:32:53.971Z,19.70
2023-05-25T15:35:58.195Z,19.90
2023-05-25T15:39:02.341Z,19.67
2023-05-25T15:42:06.515Z,19.50
2023-05-25T15:45:11.242Z,19.35
2023-05-25T15:48:16.435Z,19.19
2023-05-25T15:51:20.573Z,19.21
2023-05-25T15:54:24.602Z,19.21
2023-05-25T15:57:34.470Z,19.22
2023-05-25T16:00:38.753Z,19.29
2023-05-25T16:03:43.991Z,19.43
2023-05-25T16:06:49.252Z,19.37
2023-05-25T16:09:52.830Z,19.04
2023-05-25T16:12:56.824Z,19.16
2023-05-25T16:16:01.458Z,19.08
2023-05-25T16:19:05.797Z,18.74
2023-05-25T16:22:09.892Z,19.35
2023-05-25T16:25:13.897Z,19.13
2023-05-25T16:28:18.642Z,18.78
2023-05-25T16:31:22.754Z,18.56
2023-05-25T16:34:26.781Z,18.56
2023-05-25T16:37:30.560Z,18.47
2023-05-25T16:40:36.421Z,18.62
2023-05-25T16:43:40.453Z,18.92
2023-05-25T16:46:44.542Z,18.85
2023-05-25T16:49:48.666Z,18.72
2023-05-25T16:52:52.668Z,18.64
2023-05-25T16:56:00.422Z,18.20
2023-05-25T16:59:04.539Z,18.26
2023-05-25T17:02:08.359Z,18.15
2023-05-25T17:05:12.433Z,18.14
2023-05-25T17:08:16.257Z,17.96
2023-05-25T17:11:27.105Z,17.57
2023-05-25T17:14:31.185Z,17.66
2023-05-25T17:17:35.285Z,17.72
2023-05-25T17:20:39.365Z,17.67
2023-05-25T17:23:43.450Z,17.69
2023-05-25T17:26:50.211Z,18.03
2023-05-25T17:29:54.623Z,18.23
2023-05-25T17:33:02.286Z,18.21
2023-05-25T17:36:06.847Z,18.56
2023-05-25T17:39:11.015Z,18.59
2023-05-25T17:42:15.452Z,18.45
2023-05-25T17:45:19.637Z,18.82
2023-05-25T17:48:23.616Z,18.88
2023-05-25T17:51:27.528Z,18.89
2023-05-25T17:54:31.650Z,18.74
2023-05-25T17:57:35.683Z,18.60
2023-05-25T18:00:39.512Z,18.55
2023-05-25T18:03:44.640Z,18.66
2023-05-25T18:06:53.221Z,18.71
2023-05-25T18:09:57.227Z,18.40
2023-05-25T18:13:06.847Z,18.42
2023-05-25T18:16:11.123Z,18.37
2023-05-25T18:19:17.400Z,18.63
2023-05-25T18:22:21.406Z,18.36
2023-05-25T18:25:25.523Z,18.41
2023-05-25T18:28:31.282Z,18.44
2023-05-25T18:31:35.495Z,18.43
2023-05-25T18:34:39.554Z,18.37
2023-05-25T18:37:43.533Z,18.25
2023-05-25T18:40:47.653Z,18.31
2023-05-25T18:43:52.363Z,18.17
2023-05-25T18:46:57.715Z,17.93
2023-05-25T18:50:01.889Z,17.57
2023-05-25T18:53:10.969Z,17.58
2023-05-25T18:56:15.291Z,17.70
2023-05-25T18:59:22.281Z,17.97
2023-05-25T19:02:27.337Z,17.83
2023-05-25T19:05:31.465Z,17.69
2023-05-25T19:08:35.327Z,17.50
2023-05-25T19:11:39.601Z,17.44
2023-05-25T19:14:43.749Z,17.63
2023-05-25T19:17:47.950Z,17.73
2023-05-25T19:20:52.301Z,17.97
2023-05-25T19:23:58.285Z,17.85
2023-05-25T19:27:02.648Z,17.74
2023-05-25T19:30:07.260Z,17.67
2023-05-25T19:33:11.700Z,17.67
2023-05-25T19:36:15.950Z,17.44
2023-05-25T19:39:20.113Z,17.25
2023-05-25T19:42:24.322Z,17.35
2023-05-25T19:45:28.114Z,17.08
2023-05-25T19:48:32.612Z,16.97
2023-05-25T19:51:37.925Z,17.30
2023-05-25T19:54:41.973Z,17.46
2023-05-25T19:57:45.934Z,17.36
2023-05-25T20:00:51.663Z,17.63
2023-05-25T20:03:55.817Z,17.52
2023-05-25T20:06:59.794Z,17.61
2023-05-25T20:10:07.197Z,17.28
2023-05-25T20:13:10.931Z,17.56
2023-05-25T20:16:15.301Z,17.72
2023-05-25T20:19:25.792Z,17.83
2023-05-25T20:22:29.874Z,17.73
2023-05-25T20:25:33.888Z,17.66
2023-05-25T20:28:37.895Z,17.68
2023-05-25T20:31:41.914Z,17.80
2023-05-25T20:34:45.871Z,17.67
2023-05-25T20:37:52.285Z,17.88
2023-05-25T20:40:56.116Z,18.00
2023-05-25T20:44:00.441Z,18.03
2023-05-25T20:47:04.566Z,18.07
2023-05-25T20:50:12.609Z,17.82
2023-05-25T20:53:51.248Z,17.61
2023-05-25T20:57:27.329Z,17.36
2023-05-25T21:00:51.126Z,16.88
2023-05-25T21:03:59.106Z,17.63
2023-05-25T21:07:03.440Z,17.85
2023-05-25T21:10:08.053Z,18.06
2023-05-25T21:13:12.938Z,18.15
2023-05-25T21:16:17.262Z,18.02
2023-05-25T21:19:22.746Z,18.09
2023-05-25T21:22:26.898Z,17.96
2023-05-25T21:25:31.457Z,17.93
2023-05-25T21:28:35.774Z,18.34
2023-05-25T21:32:00.862Z,18.30
2023-05-25T21:35:05.788Z,18.34
2023-05-25T21:38:09.791Z,18.34
2023-05-25T21:41:14.493Z,18.32
2023-05-25T21:44:19.145Z,18.46
2023-05-25T21:47:23.294Z,18.40
2023-05-25T21:50:27.307Z,18.41
2023-05-25T21:53:31.865Z,18.47
2023-05-25T21:57:08.525Z,18.21
2023-05-25T22:00:13.869Z,18.47
2023-05-25T22:03:20.278Z,18.33
2023-05-25T22:06:26.420Z,18.33
2023-05-25T22:09:32.771Z,18.08
2023-05-25T22:12:37.129Z,18.02
2023-05-25T22:15:40.938Z,18.16
2023-05-25T22:18:45.029Z,17.95
2023-05-25T22:21:48.984Z,18.06
2023-05-25T22:24:54.592Z,18.08
2023-05-25T22:28:01.637Z,18.17
2023-05-25T22:31:08.106Z,18.25
2023-05-25T22:34:12.476Z,17.98
2023-05-25T22:37:18.368Z,17.88
2023-05-25T22:40:22.893Z,18.20
2023-05-25T22:43:27.890Z,18.31
2023-05-25T22:46:32.100Z,18.09
2023-05-25T22:49:41.874Z,18.01
2023-05-25T22:52:48.932Z,18.34
2023-05-25T22:55:52.754Z,18.45
2023-05-25T22:58:56.804Z,18.56
2023-05-25T23:02:01.950Z,18.76
2023-05-25T23:05:06.454Z,18.63
2023-05-25T23:08:10.372Z,18.90
2023-05-25T23:11:14.402Z,18.76
2023-05-25T23:14:18.213Z,18.93
2023-05-25T23:17:23.167Z,18.96
2023-05-25T23:20:27.044Z,19.06
2023-05-25T23:23:31.009Z,19.20
2023-05-25T23:26:35.007Z,19.33
2023-05-25T23:29:39.033Z,19.51
2023-05-25T23:32:43.128Z,19.35
2023-05-25T23:35:48.830Z,19.33
2023-05-25T23:38:53.799Z,19.28
2023-05-25T23:41:58.070Z,19.19
2023-05-25T23:45:02.112Z,19.38
2023-05-25T23:48:08.953Z,19.46
2023-05-25T23:51:13.300Z,19.47
2023-05-25T23:54:17.077Z,19.73
2023-05-25T23:57:21.216Z,19.78
